首页
METAR-TAF:

METAR-TAF

机场 :

土伦, 法国

纬度: 43-06N, 经度: 006-09E, 海拔: 3米

当前天气观测

该预报发布于22分钟前的14:00 UTC
风速12节,风向东转东南
温度 14°C
湿度 67%
气压 1020 hPa
能见度10公里或以上
1500米以下无云,无积雨云

METAR: LFTH 071400Z AUTO 11012KT CAVOK 14/08 Q1020 NOSIG

时间: 15:22 (14:22 UTC)

预报

该预报发布于6小时和22分钟前的08:00 UTC
预报有效从07日的 09点(UTC)到 08日的 09点(UTC)
风速12节,风向
能见度10公里或以上
散云层高于3000英尺
成为
从 07日的 19点(UTC)到 07日的 21点(UTC)
风速5节,风向

TAF: LFTH 070800Z 0709/0809 09012KT 9999 SCT030 BECMG 0719/0721 35005KT

超过4000个机场的气象观测和天气预报(METAR&TAF报告)。

可查询的气象台以黄色和红色小点在地图上表示。

将鼠标移到小点上方,可查看气象台名称。

然后点击查看天气观测和预报。

如需切换地图:点击带黑十字的绿色按钮放大地图;点击带横线的绿色按钮缩小地图;或者点击绿色箭头查看邻近地区的地图。


METAR-TAF: